SVA5866 OEJN-VOBL
Flight info
| Callsign | SVA5866 |
|---|---|
| Flight time | 4h 41m |
| Altitude | 37000 |
| Route | EGREP T532 KODIS Y214 RAPMA DCT DEGNO DCT DAPOL/N0465F390 L692 GISKA N569 UMILA L883 REXOD N563 GUNIM |
| Aircraft | A333/H-SDE3GHIJ2J3J5M1RVWXY/LB2D1 |
Departure
| Time | 2026-05-08 16:59 |
|---|---|
| Airport | King Abdulaziz International Airport (OEJN) |
Arrival
| Time | 2026-05-08 21:40 |
|---|---|
| Airport | Kempegowda International Airport Bengaluru (VOBL) |
| Time | Latitude | Longitude | Altitude | Speed | Heading |
|---|---|---|---|---|---|
| 2026-05-08 16:59 | 21.75832 | 39.13190 | 2808 ft | 238 kts | 9° |
| 2026-05-08 16:59 | 21.77446 | 39.13858 | 3064 ft | 257 kts | 28° |
| 2026-05-08 16:59 | 21.78935 | 39.14961 | 3563 ft | 263 kts | 38° |
| 2026-05-08 17:00 | 21.80332 | 39.16277 | 4013 ft | 271 kts | 43° |
| 2026-05-08 17:00 | 21.81710 | 39.17702 | 4481 ft | 278 kts | 41° |
| 2026-05-08 17:00 | 21.83106 | 39.19159 | 4975 ft | 282 kts | 44° |
| 2026-05-08 17:00 | 21.84525 | 39.20641 | 5551 ft | 284 kts | 44° |
| 2026-05-08 17:01 | 21.85962 | 39.22113 | 6190 ft | 285 kts | 43° |
| 2026-05-08 17:01 | 21.87421 | 39.23576 | 6754 ft | 288 kts | 43° |
| 2026-05-08 17:01 | 21.88907 | 39.25040 | 7333 ft | 291 kts | 42° |
| 2026-05-08 17:01 | 21.90412 | 39.26506 | 7967 ft | 293 kts | 42° |
| 2026-05-08 17:02 | 21.91934 | 39.27982 | 8563 ft | 297 kts | 42° |
| 2026-05-08 17:02 | 21.93483 | 39.29481 | 9178 ft | 301 kts | 42° |
| 2026-05-08 17:02 | 21.95044 | 39.30992 | 9844 ft | 303 kts | 43° |
| 2026-05-08 17:02 | 21.96633 | 39.32532 | 10292 ft | 314 kts | 43° |
| 2026-05-08 17:03 | 21.98297 | 39.34148 | 10531 ft | 331 kts | 42° |
| 2026-05-08 17:03 | 22.00052 | 39.35855 | 10739 ft | 348 kts | 43° |
| 2026-05-08 17:03 | 22.01777 | 39.37757 | 10969 ft | 362 kts | 53° |
| 2026-05-08 17:03 | 22.03149 | 39.40066 | 11418 ft | 369 kts | 61° |
| 2026-05-08 17:04 | 22.04346 | 39.42531 | 11947 ft | 373 kts | 65° |
| 2026-05-08 17:04 | 22.05443 | 39.45084 | 12486 ft | 378 kts | 67° |
| 2026-05-08 17:04 | 22.06478 | 39.47662 | 13023 ft | 382 kts | 68° |
| 2026-05-08 17:04 | 22.07517 | 39.50312 | 13596 ft | 387 kts | 68° |
| 2026-05-08 17:05 | 22.08570 | 39.53002 | 14097 ft | 391 kts | 68° |
| 2026-05-08 17:05 | 22.09638 | 39.55704 | 14616 ft | 394 kts | 68° |
| 2026-05-08 17:05 | 22.10726 | 39.58429 | 15152 ft | 397 kts | 67° |
| 2026-05-08 17:05 | 22.11830 | 39.61172 | 15679 ft | 400 kts | 66° |
| 2026-05-08 17:06 | 22.12949 | 39.63940 | 16181 ft | 404 kts | 66° |
| 2026-05-08 17:06 | 22.14080 | 39.66730 | 16701 ft | 408 kts | 66° |
| 2026-05-08 17:06 | 22.15221 | 39.69543 | 17222 ft | 412 kts | 66° |
| 2026-05-08 17:06 | 22.16375 | 39.72392 | 17697 ft | 416 kts | 66° |
| 2026-05-08 17:07 | 22.17535 | 39.75260 | 18179 ft | 420 kts | 66° |
| 2026-05-08 17:07 | 22.18706 | 39.78159 | 18619 ft | 423 kts | 66° |
| 2026-05-08 17:07 | 22.19884 | 39.81077 | 19037 ft | 426 kts | 65° |
| 2026-05-08 17:07 | 22.21068 | 39.84013 | 19470 ft | 428 kts | 65° |
| 2026-05-08 17:08 | 22.22258 | 39.86964 | 19910 ft | 431 kts | 65° |
| 2026-05-08 17:08 | 22.23458 | 39.89941 | 20309 ft | 433 kts | 65° |
| 2026-05-08 17:08 | 22.24663 | 39.92934 | 20749 ft | 437 kts | 65° |
| 2026-05-08 17:08 | 22.25967 | 39.95910 | 21146 ft | 440 kts | 59° |
| 2026-05-08 17:09 | 22.27545 | 39.98742 | 21566 ft | 441 kts | 54° |
| 2026-05-08 17:09 | 22.29230 | 40.01515 | 21973 ft | 443 kts | 53° |
| 2026-05-08 17:09 | 22.30927 | 40.04302 | 22402 ft | 445 kts | 53° |
| 2026-05-08 17:09 | 22.32636 | 40.07097 | 22831 ft | 447 kts | 53° |
| 2026-05-08 17:10 | 22.34353 | 40.09914 | 23226 ft | 450 kts | 53° |
| 2026-05-08 17:10 | 22.36048 | 40.12709 | 23625 ft | 453 kts | 53° |
| 2026-05-08 17:10 | 22.37796 | 40.15603 | 23944 ft | 455 kts | 53° |
| 2026-05-08 17:10 | 22.39533 | 40.18477 | 24254 ft | 458 kts | 53° |
| 2026-05-08 17:11 | 22.41219 | 40.21411 | 24587 ft | 463 kts | 59° |
| 2026-05-08 17:11 | 22.42492 | 40.24630 | 24872 ft | 470 kts | 71° |
| 2026-05-08 17:11 | 22.43211 | 40.28040 | 25171 ft | 474 kts | 78° |
| 2026-05-08 17:11 | 22.43708 | 40.31576 | 25504 ft | 476 kts | 82° |
| 2026-05-08 17:12 | 22.44073 | 40.35140 | 25807 ft | 479 kts | 84° |
| 2026-05-08 17:12 | 22.44376 | 40.38740 | 26098 ft | 482 kts | 84° |
| 2026-05-08 17:12 | 22.44660 | 40.42354 | 26403 ft | 484 kts | 84° |
| 2026-05-08 17:12 | 22.44950 | 40.45985 | 26695 ft | 486 kts | 84° |
| 2026-05-08 17:13 | 22.45253 | 40.49641 | 26990 ft | 489 kts | 84° |
| 2026-05-08 17:13 | 22.45570 | 40.53314 | 27237 ft | 492 kts | 84° |
| 2026-05-08 17:13 | 22.45896 | 40.57004 | 27515 ft | 495 kts | 84° |
| 2026-05-08 17:13 | 22.46228 | 40.60712 | 27815 ft | 497 kts | 84° |
| 2026-05-08 17:14 | 22.46564 | 40.64439 | 28111 ft | 499 kts | 84° |
| 2026-05-08 17:14 | 22.46901 | 40.68182 | 28391 ft | 501 kts | 84° |
| 2026-05-08 17:14 | 22.47239 | 40.71948 | 28667 ft | 504 kts | 85° |
| 2026-05-08 17:14 | 22.47576 | 40.75726 | 28936 ft | 506 kts | 85° |
| 2026-05-08 17:15 | 22.47914 | 40.79524 | 29220 ft | 508 kts | 85° |
| 2026-05-08 17:15 | 22.48252 | 40.83338 | 29484 ft | 512 kts | 84° |
| 2026-05-08 17:15 | 22.48591 | 40.87177 | 29721 ft | 515 kts | 84° |
| 2026-05-08 17:15 | 22.48931 | 40.91034 | 29992 ft | 517 kts | 85° |
| 2026-05-08 17:16 | 22.49273 | 40.94912 | 30245 ft | 518 kts | 85° |
| 2026-05-08 17:16 | 22.49613 | 40.98788 | 30458 ft | 520 kts | 86° |
| 2026-05-08 17:16 | 22.49954 | 41.02696 | 30672 ft | 522 kts | 86° |
| 2026-05-08 17:16 | 22.50295 | 41.06615 | 30891 ft | 525 kts | 86° |
| 2026-05-08 17:17 | 22.50637 | 41.10548 | 31112 ft | 527 kts | 86° |
| 2026-05-08 17:17 | 22.50979 | 41.14500 | 31313 ft | 529 kts | 87° |
| 2026-05-08 17:17 | 22.51322 | 41.18466 | 31513 ft | 531 kts | 87° |
| 2026-05-08 17:17 | 22.51665 | 41.22445 | 31767 ft | 532 kts | 87° |
| 2026-05-08 17:18 | 22.52007 | 41.26426 | 32094 ft | 531 kts | 88° |
| 2026-05-08 17:18 | 22.52349 | 41.30396 | 32417 ft | 530 kts | 88° |
| 2026-05-08 17:18 | 22.52689 | 41.34370 | 32707 ft | 530 kts | 88° |
| 2026-05-08 17:18 | 22.53027 | 41.38340 | 32920 ft | 532 kts | 88° |
| 2026-05-08 17:19 | 22.53365 | 41.42334 | 33128 ft | 533 kts | 89° |
| 2026-05-08 17:19 | 22.53703 | 41.46318 | 33513 ft | 531 kts | 89° |
| 2026-05-08 17:19 | 22.54040 | 41.50295 | 33846 ft | 530 kts | 89° |
| 2026-05-08 17:19 | 22.54374 | 41.54262 | 34099 ft | 530 kts | 89° |
| 2026-05-08 17:20 | 22.54707 | 41.58232 | 34284 ft | 531 kts | 90° |
| 2026-05-08 17:20 | 22.55040 | 41.62218 | 34415 ft | 533 kts | 90° |
| 2026-05-08 17:20 | 22.55372 | 41.66209 | 34627 ft | 533 kts | 90° |
| 2026-05-08 17:20 | 22.55704 | 41.70202 | 34876 ft | 532 kts | 90° |
| 2026-05-08 17:21 | 22.56035 | 41.74182 | 35099 ft | 532 kts | 90° |
| 2026-05-08 17:21 | 22.56365 | 41.78169 | 35299 ft | 532 kts | 91° |
| 2026-05-08 17:21 | 22.56693 | 41.82143 | 35562 ft | 530 kts | 91° |
| 2026-05-08 17:21 | 22.57021 | 41.86115 | 35776 ft | 529 kts | 91° |
| 2026-05-08 17:22 | 22.57346 | 41.90081 | 35974 ft | 530 kts | 91° |
| 2026-05-08 17:22 | 22.57689 | 41.94049 | 36135 ft | 531 kts | 89° |
| 2026-05-08 17:22 | 22.58055 | 41.97970 | 36310 ft | 531 kts | 89° |
| 2026-05-08 17:22 | 22.58411 | 42.01943 | 36508 ft | 529 kts | 89° |
| 2026-05-08 17:23 | 22.58754 | 42.05900 | 36708 ft | 529 kts | 90° |
| 2026-05-08 17:23 | 22.59069 | 42.09871 | 36849 ft | 529 kts | 92° |
| 2026-05-08 17:23 | 22.59355 | 42.13840 | 36987 ft | 530 kts | 92° |
| 2026-05-08 17:23 | 22.59638 | 42.17829 | 37007 ft | 534 kts | 92° |
| 2026-05-08 17:24 | 22.60233 | 42.25894 | 36999 ft | 542 kts | 91° |
| 2026-05-08 17:24 | 22.60869 | 42.34077 | 37000 ft | 549 kts | 91° |
| 2026-05-08 17:25 | 22.61523 | 42.42354 | 36982 ft | 553 kts | 91° |
| 2026-05-08 17:25 | 22.62179 | 42.50638 | 36985 ft | 552 kts | 91° |
| 2026-05-08 17:26 | 22.62826 | 42.58919 | 36981 ft | 552 kts | 91° |
| 2026-05-08 17:26 | 22.63466 | 42.67199 | 36975 ft | 552 kts | 91° |
| 2026-05-08 17:27 | 22.64100 | 42.75467 | 36976 ft | 551 kts | 91° |
| 2026-05-08 17:27 | 22.64729 | 42.83733 | 36971 ft | 551 kts | 91° |
| 2026-05-08 17:28 | 22.65354 | 42.91999 | 36965 ft | 551 kts | 91° |
| 2026-05-08 17:28 | 22.65975 | 43.00267 | 36977 ft | 551 kts | 91° |
| 2026-05-08 17:29 | 22.66588 | 43.08482 | 36971 ft | 552 kts | 91° |
| 2026-05-08 17:29 | 22.67206 | 43.16828 | 36968 ft | 553 kts | 91° |
| 2026-05-08 17:30 | 22.67812 | 43.25066 | 36978 ft | 553 kts | 91° |
| 2026-05-08 17:30 | 22.68418 | 43.33373 | 36970 ft | 555 kts | 91° |
| 2026-05-08 17:31 | 22.69023 | 43.41710 | 36964 ft | 555 kts | 91° |
| 2026-05-08 17:31 | 22.69623 | 43.50036 | 36967 ft | 555 kts | 91° |
| 2026-05-08 17:32 | 22.70219 | 43.58368 | 36964 ft | 555 kts | 91° |
| 2026-05-08 17:32 | 22.70811 | 43.66707 | 36947 ft | 555 kts | 91° |
| 2026-05-08 17:33 | 22.71299 | 43.73615 | 36960 ft | 553 kts | 91° |
| 2026-05-08 17:33 | 22.71881 | 43.81930 | 36970 ft | 554 kts | 91° |
| 2026-05-08 17:34 | 22.72458 | 43.90245 | 36950 ft | 554 kts | 91° |
| 2026-05-08 17:34 | 22.73031 | 43.98559 | 36950 ft | 554 kts | 91° |
| 2026-05-08 17:35 | 22.73600 | 44.06880 | 36936 ft | 553 kts | 91° |
| 2026-05-08 17:35 | 22.74164 | 44.15170 | 36954 ft | 552 kts | 91° |
| 2026-05-08 17:36 | 22.74722 | 44.23456 | 36931 ft | 551 kts | 91° |
| 2026-05-08 17:36 | 22.75276 | 44.31737 | 36944 ft | 551 kts | 91° |
| 2026-05-08 17:37 | 22.75824 | 44.40008 | 36950 ft | 551 kts | 91° |
| 2026-05-08 17:37 | 22.76368 | 44.48283 | 36946 ft | 550 kts | 91° |
| 2026-05-08 17:38 | 22.76909 | 44.56552 | 36948 ft | 550 kts | 91° |
| 2026-05-08 17:38 | 22.77441 | 44.64762 | 36946 ft | 550 kts | 91° |
| 2026-05-08 17:39 | 22.77971 | 44.73011 | 36945 ft | 548 kts | 91° |
| 2026-05-08 17:39 | 22.78497 | 44.81255 | 36948 ft | 548 kts | 91° |
| 2026-05-08 17:40 | 22.79017 | 44.89492 | 36942 ft | 548 kts | 91° |
| 2026-05-08 17:40 | 22.79534 | 44.97738 | 36948 ft | 549 kts | 91° |
| 2026-05-08 17:41 | 22.80047 | 45.05988 | 36950 ft | 548 kts | 91° |
| 2026-05-08 17:41 | 22.80555 | 45.14226 | 36938 ft | 547 kts | 91° |
| 2026-05-08 17:42 | 22.81058 | 45.22438 | 36944 ft | 545 kts | 91° |
| 2026-05-08 17:42 | 22.81555 | 45.30626 | 36939 ft | 544 kts | 91° |
| 2026-05-08 17:43 | 22.82047 | 45.38809 | 36942 ft | 544 kts | 92° |
| 2026-05-08 17:43 | 22.82533 | 45.46982 | 36945 ft | 543 kts | 92° |
| 2026-05-08 17:44 | 22.83017 | 45.55153 | 36945 ft | 543 kts | 92° |
| 2026-05-08 17:44 | 22.83495 | 45.63332 | 36938 ft | 543 kts | 92° |
| 2026-05-08 17:45 | 22.83970 | 45.71507 | 36941 ft | 543 kts | 92° |
| 2026-05-08 17:45 | 22.84440 | 45.79678 | 36943 ft | 543 kts | 92° |
| 2026-05-08 17:46 | 22.84906 | 45.87853 | 36944 ft | 543 kts | 92° |
| 2026-05-08 17:46 | 22.85368 | 45.96024 | 36943 ft | 543 kts | 91° |
| 2026-05-08 17:47 | 22.85826 | 46.04187 | 36946 ft | 543 kts | 91° |
| 2026-05-08 17:47 | 22.86202 | 46.10973 | 36951 ft | 543 kts | 91° |
| 2026-05-08 17:48 | 22.86727 | 46.20522 | 36950 ft | 543 kts | 91° |
| 2026-05-08 17:48 | 22.87172 | 46.28700 | 36952 ft | 543 kts | 92° |
| 2026-05-08 17:49 | 22.87615 | 46.36875 | 36951 ft | 543 kts | 92° |
| 2026-05-08 17:49 | 22.88052 | 46.45054 | 36955 ft | 544 kts | 92° |
| 2026-05-08 17:50 | 22.88482 | 46.53185 | 36949 ft | 544 kts | 92° |
| 2026-05-08 17:50 | 22.88911 | 46.61372 | 36943 ft | 543 kts | 92° |
| 2026-05-08 17:51 | 22.89335 | 46.69539 | 36939 ft | 542 kts | 92° |
| 2026-05-08 17:51 | 22.89754 | 46.77699 | 36931 ft | 541 kts | 92° |
| 2026-05-08 17:52 | 22.90169 | 46.85844 | 36930 ft | 540 kts | 92° |
| 2026-05-08 17:53 | 22.90781 | 46.98045 | 36914 ft | 540 kts | 92° |
| 2026-05-08 17:53 | 22.91185 | 47.06169 | 36922 ft | 539 kts | 92° |
| 2026-05-08 17:54 | 22.91583 | 47.14288 | 36922 ft | 539 kts | 92° |
| 2026-05-08 17:54 | 22.91977 | 47.22402 | 36921 ft | 539 kts | 92° |
| 2026-05-08 17:55 | 22.92367 | 47.30512 | 36920 ft | 538 kts | 92° |
| 2026-05-08 17:55 | 22.92752 | 47.38621 | 36904 ft | 538 kts | 92° |
| 2026-05-08 17:56 | 22.93133 | 47.46723 | 36920 ft | 537 kts | 92° |
| 2026-05-08 17:56 | 22.93510 | 47.54807 | 36914 ft | 537 kts | 92° |
| 2026-05-08 17:57 | 22.93882 | 47.62891 | 36905 ft | 535 kts | 92° |
| 2026-05-08 17:57 | 22.94248 | 47.70936 | 36907 ft | 534 kts | 92° |
| 2026-05-08 17:58 | 22.94610 | 47.78972 | 36905 ft | 533 kts | 92° |
| 2026-05-08 17:58 | 22.94967 | 47.87006 | 36901 ft | 532 kts | 92° |
| 2026-05-08 17:59 | 22.95317 | 47.94970 | 36893 ft | 532 kts | 92° |
| 2026-05-08 17:59 | 22.95665 | 48.02985 | 36888 ft | 531 kts | 92° |
| 2026-05-08 18:00 | 22.96009 | 48.10978 | 36892 ft | 530 kts | 92° |
| 2026-05-08 18:00 | 22.96517 | 48.22964 | 36888 ft | 530 kts | 92° |
| 2026-05-08 18:01 | 22.96850 | 48.30938 | 36894 ft | 528 kts | 92° |
| 2026-05-08 18:01 | 22.97179 | 48.38901 | 36893 ft | 528 kts | 92° |
| 2026-05-08 18:02 | 22.97448 | 48.45514 | 36880 ft | 528 kts | 92° |
| 2026-05-08 18:02 | 22.97822 | 48.54794 | 36895 ft | 526 kts | 92° |
| 2026-05-08 18:03 | 22.98137 | 48.62721 | 36887 ft | 526 kts | 92° |
| 2026-05-08 18:03 | 22.98447 | 48.70644 | 36888 ft | 526 kts | 92° |
| 2026-05-08 18:04 | 22.98754 | 48.78573 | 36890 ft | 526 kts | 92° |
| 2026-05-08 18:04 | 22.99058 | 48.86498 | 36888 ft | 526 kts | 92° |
| 2026-05-08 18:05 | 22.99357 | 48.94421 | 36886 ft | 525 kts | 92° |
| 2026-05-08 18:05 | 22.99045 | 49.02270 | 36886 ft | 517 kts | 103° |
| 2026-05-08 18:06 | 22.97866 | 49.09949 | 36884 ft | 516 kts | 105° |
| 2026-05-08 18:06 | 22.96523 | 49.17596 | 36873 ft | 516 kts | 106° |
| 2026-05-08 18:07 | 22.95162 | 49.25234 | 36881 ft | 515 kts | 105° |
| 2026-05-08 18:07 | 22.93824 | 49.32821 | 36880 ft | 515 kts | 105° |
| 2026-05-08 18:08 | 22.92477 | 49.40510 | 36881 ft | 516 kts | 105° |
| 2026-05-08 18:08 | 22.91144 | 49.48108 | 36880 ft | 516 kts | 105° |
| 2026-05-08 18:09 | 22.89800 | 49.55748 | 36880 ft | 516 kts | 105° |
| 2026-05-08 18:09 | 22.88453 | 49.63383 | 36881 ft | 515 kts | 105° |
| 2026-05-08 18:10 | 22.87101 | 49.71017 | 36877 ft | 515 kts | 105° |
| 2026-05-08 18:10 | 22.85749 | 49.78632 | 36884 ft | 514 kts | 105° |
| 2026-05-08 18:11 | 22.84395 | 49.86231 | 36882 ft | 513 kts | 105° |
| 2026-05-08 18:11 | 22.83039 | 49.93825 | 36884 ft | 513 kts | 105° |
| 2026-05-08 18:12 | 22.81678 | 50.01420 | 36877 ft | 513 kts | 105° |
| 2026-05-08 18:12 | 22.80315 | 50.09011 | 36882 ft | 513 kts | 105° |
| 2026-05-08 18:13 | 22.78948 | 50.16599 | 36882 ft | 513 kts | 105° |
| 2026-05-08 18:13 | 22.77578 | 50.24183 | 36874 ft | 513 kts | 105° |
| 2026-05-08 18:14 | 22.76205 | 50.31760 | 36888 ft | 513 kts | 105° |
| 2026-05-08 18:14 | 22.74829 | 50.39338 | 36873 ft | 513 kts | 105° |
| 2026-05-08 18:15 | 22.73447 | 50.46924 | 36879 ft | 513 kts | 105° |
| 2026-05-08 18:15 | 22.72069 | 50.54466 | 36883 ft | 514 kts | 105° |
| 2026-05-08 18:16 | 22.70678 | 50.62059 | 36867 ft | 514 kts | 105° |
| 2026-05-08 18:16 | 22.69283 | 50.69652 | 36876 ft | 515 kts | 105° |
| 2026-05-08 18:17 | 22.67882 | 50.77258 | 36874 ft | 515 kts | 105° |
| 2026-05-08 18:17 | 22.66476 | 50.84866 | 36876 ft | 515 kts | 105° |
| 2026-05-08 18:18 | 22.65067 | 50.92474 | 36873 ft | 515 kts | 105° |
| 2026-05-08 18:18 | 22.63655 | 51.00080 | 36874 ft | 516 kts | 105° |
| 2026-05-08 18:19 | 22.62237 | 51.07693 | 36878 ft | 516 kts | 105° |
| 2026-05-08 18:19 | 22.60826 | 51.15248 | 36875 ft | 516 kts | 105° |
| 2026-05-08 18:20 | 22.59403 | 51.22847 | 36880 ft | 516 kts | 105° |
| 2026-05-08 18:20 | 22.57976 | 51.30449 | 36873 ft | 515 kts | 105° |
| 2026-05-08 18:21 | 22.56546 | 51.38041 | 36866 ft | 515 kts | 105° |
| 2026-05-08 18:21 | 22.55115 | 51.45622 | 36872 ft | 514 kts | 105° |
| 2026-05-08 18:22 | 22.53680 | 51.53203 | 36868 ft | 514 kts | 105° |
| 2026-05-08 18:22 | 22.52242 | 51.60777 | 36870 ft | 514 kts | 105° |
| 2026-05-08 18:23 | 22.51043 | 51.67075 | 36869 ft | 514 kts | 105° |
| 2026-05-08 18:23 | 22.49598 | 51.74652 | 36871 ft | 514 kts | 105° |
| 2026-05-08 18:24 | 22.48150 | 51.82226 | 36855 ft | 514 kts | 105° |
| 2026-05-08 18:24 | 22.46699 | 51.89793 | 36867 ft | 513 kts | 105° |
| 2026-05-08 18:25 | 22.45247 | 51.97349 | 36867 ft | 513 kts | 105° |
| 2026-05-08 18:25 | 22.43790 | 52.04904 | 36870 ft | 513 kts | 105° |
| 2026-05-08 18:26 | 22.42331 | 52.12455 | 36867 ft | 513 kts | 105° |
| 2026-05-08 18:26 | 22.40868 | 52.20007 | 36867 ft | 514 kts | 105° |
| 2026-05-08 18:27 | 22.39649 | 52.26284 | 36867 ft | 514 kts | 105° |
| 2026-05-08 18:27 | 22.37929 | 52.35115 | 36865 ft | 514 kts | 105° |
| 2026-05-08 18:28 | 22.36454 | 52.42667 | 36861 ft | 514 kts | 105° |
| 2026-05-08 18:28 | 22.34977 | 52.50213 | 36861 ft | 514 kts | 105° |
| 2026-05-08 18:29 | 22.33495 | 52.57763 | 36857 ft | 514 kts | 105° |
| 2026-05-08 18:29 | 22.32008 | 52.65314 | 36856 ft | 514 kts | 105° |
| 2026-05-08 18:30 | 22.30519 | 52.72863 | 36857 ft | 514 kts | 105° |
| 2026-05-08 18:30 | 22.29036 | 52.80361 | 36852 ft | 514 kts | 105° |
| 2026-05-08 18:31 | 22.27538 | 52.87914 | 36849 ft | 515 kts | 105° |
| 2026-05-08 18:31 | 22.26036 | 52.95469 | 36851 ft | 514 kts | 105° |
| 2026-05-08 18:32 | 22.24531 | 53.03020 | 36844 ft | 514 kts | 105° |
| 2026-05-08 18:32 | 22.23023 | 53.10565 | 36847 ft | 514 kts | 105° |
| 2026-05-08 18:33 | 22.21511 | 53.18112 | 36846 ft | 514 kts | 105° |
| 2026-05-08 18:33 | 22.19996 | 53.25655 | 36843 ft | 515 kts | 105° |
| 2026-05-08 18:34 | 22.18476 | 53.33206 | 36846 ft | 515 kts | 105° |
| 2026-05-08 18:34 | 22.16953 | 53.40749 | 36843 ft | 515 kts | 105° |
| 2026-05-08 18:35 | 22.15425 | 53.48300 | 36838 ft | 515 kts | 105° |
| 2026-05-08 18:35 | 22.13898 | 53.55830 | 36840 ft | 514 kts | 105° |
| 2026-05-08 18:36 | 22.12368 | 53.63355 | 36841 ft | 513 kts | 105° |
| 2026-05-08 18:36 | 22.10835 | 53.70875 | 36839 ft | 513 kts | 105° |
| 2026-05-08 18:37 | 22.09300 | 53.78389 | 36836 ft | 513 kts | 105° |
| 2026-05-08 18:37 | 22.07771 | 53.85850 | 36836 ft | 513 kts | 105° |
| 2026-05-08 18:38 | 22.06229 | 53.93360 | 36837 ft | 513 kts | 105° |
| 2026-05-08 18:38 | 22.04685 | 54.00861 | 36834 ft | 513 kts | 105° |
| 2026-05-08 18:39 | 22.03135 | 54.08367 | 36835 ft | 513 kts | 105° |
| 2026-05-08 18:39 | 22.01585 | 54.15857 | 36835 ft | 512 kts | 105° |
| 2026-05-08 18:40 | 22.00032 | 54.23346 | 36834 ft | 512 kts | 105° |
| 2026-05-08 18:40 | 21.98477 | 54.30828 | 36829 ft | 511 kts | 105° |
| 2026-05-08 18:41 | 21.96920 | 54.38297 | 36832 ft | 511 kts | 105° |
| 2026-05-08 18:41 | 21.95360 | 54.45767 | 36829 ft | 511 kts | 105° |
| 2026-05-08 18:42 | 21.93797 | 54.53234 | 36829 ft | 511 kts | 105° |
| 2026-05-08 18:42 | 21.92231 | 54.60698 | 36827 ft | 510 kts | 105° |
| 2026-05-08 18:43 | 21.90663 | 54.68148 | 36826 ft | 511 kts | 105° |
| 2026-05-08 18:43 | 21.89090 | 54.75607 | 36831 ft | 511 kts | 105° |
| 2026-05-08 18:44 | 21.87514 | 54.83064 | 36826 ft | 510 kts | 105° |
| 2026-05-08 18:44 | 21.85937 | 54.90513 | 36825 ft | 510 kts | 105° |
| 2026-05-08 18:45 | 21.84357 | 54.97954 | 36825 ft | 510 kts | 105° |
| 2026-05-08 18:45 | 21.82772 | 55.05401 | 36827 ft | 510 kts | 105° |
| 2026-05-08 18:46 | 21.81187 | 55.12829 | 36822 ft | 509 kts | 105° |
| 2026-05-08 18:46 | 21.79887 | 55.20324 | 36828 ft | 511 kts | 98° |
| 2026-05-08 18:47 | 21.79189 | 55.27938 | 36824 ft | 512 kts | 96° |
| 2026-05-08 18:47 | 21.78640 | 55.35524 | 36826 ft | 512 kts | 96° |
| 2026-05-08 18:48 | 21.78106 | 55.43157 | 36827 ft | 512 kts | 96° |
| 2026-05-08 18:48 | 21.77557 | 55.50786 | 36826 ft | 512 kts | 96° |
| 2026-05-08 18:49 | 21.76994 | 55.58413 | 36828 ft | 511 kts | 96° |
| 2026-05-08 18:49 | 21.76425 | 55.66030 | 36829 ft | 511 kts | 96° |
| 2026-05-08 18:50 | 21.75852 | 55.73649 | 36833 ft | 511 kts | 96° |
| 2026-05-08 18:50 | 21.75277 | 55.81264 | 36831 ft | 511 kts | 96° |
| 2026-05-08 18:51 | 21.74699 | 55.88872 | 36833 ft | 510 kts | 96° |
| 2026-05-08 18:51 | 21.74118 | 55.96478 | 36831 ft | 510 kts | 96° |
| 2026-05-08 18:52 | 21.73534 | 56.04086 | 36832 ft | 510 kts | 96° |
| 2026-05-08 18:52 | 21.72945 | 56.11694 | 36837 ft | 510 kts | 96° |
| 2026-05-08 18:53 | 21.72354 | 56.19298 | 36834 ft | 510 kts | 96° |
| 2026-05-08 18:53 | 21.71759 | 56.26897 | 36835 ft | 510 kts | 96° |
| 2026-05-08 18:54 | 21.71161 | 56.34496 | 36834 ft | 510 kts | 96° |
| 2026-05-08 18:54 | 21.70560 | 56.42086 | 36840 ft | 509 kts | 96° |
| 2026-05-08 18:55 | 21.69651 | 56.53472 | 36834 ft | 509 kts | 96° |
| 2026-05-08 18:56 | 21.69040 | 56.61066 | 36836 ft | 509 kts | 96° |
| 2026-05-08 18:56 | 21.68427 | 56.68650 | 36837 ft | 509 kts | 97° |
| 2026-05-08 18:57 | 21.67810 | 56.76234 | 36838 ft | 509 kts | 97° |
| 2026-05-08 18:57 | 21.67190 | 56.83816 | 36838 ft | 509 kts | 97° |
| 2026-05-08 18:58 | 21.66567 | 56.91400 | 36841 ft | 509 kts | 97° |
| 2026-05-08 18:58 | 21.65945 | 56.98931 | 36843 ft | 509 kts | 97° |
| 2026-05-08 18:59 | 21.65315 | 57.06508 | 36840 ft | 509 kts | 97° |
| 2026-05-08 18:59 | 21.64681 | 57.14084 | 36840 ft | 509 kts | 97° |
| 2026-05-08 19:00 | 21.64147 | 57.20432 | 36855 ft | 509 kts | 97° |
| 2026-05-08 19:00 | 21.63403 | 57.29241 | 36849 ft | 509 kts | 97° |
| 2026-05-08 19:01 | 21.62760 | 57.36813 | 36850 ft | 509 kts | 97° |
| 2026-05-08 19:01 | 21.62113 | 57.44390 | 36844 ft | 509 kts | 97° |
| 2026-05-08 19:02 | 21.61462 | 57.51961 | 36847 ft | 509 kts | 97° |
| 2026-05-08 19:02 | 21.60809 | 57.59532 | 36848 ft | 509 kts | 97° |
| 2026-05-08 19:03 | 21.60152 | 57.67098 | 36842 ft | 509 kts | 97° |
| 2026-05-08 19:03 | 21.59492 | 57.74660 | 36844 ft | 508 kts | 97° |
| 2026-05-08 19:04 | 21.58829 | 57.82220 | 36840 ft | 508 kts | 97° |
| 2026-05-08 19:04 | 21.58162 | 57.89783 | 36835 ft | 508 kts | 97° |
| 2026-05-08 19:05 | 21.57493 | 57.97340 | 36836 ft | 508 kts | 97° |
| 2026-05-08 19:05 | 21.56821 | 58.04890 | 36834 ft | 508 kts | 97° |
| 2026-05-08 19:06 | 21.56145 | 58.12436 | 36834 ft | 508 kts | 97° |
| 2026-05-08 19:06 | 21.55466 | 58.19982 | 36834 ft | 508 kts | 97° |
| 2026-05-08 19:07 | 21.54787 | 58.27479 | 36841 ft | 507 kts | 97° |
| 2026-05-08 19:07 | 21.54103 | 58.35008 | 36839 ft | 507 kts | 97° |
| 2026-05-08 19:08 | 21.53409 | 58.42595 | 36836 ft | 507 kts | 97° |
| 2026-05-08 19:08 | 21.52721 | 58.50076 | 36842 ft | 507 kts | 97° |
| 2026-05-08 19:09 | 21.52027 | 58.57606 | 36836 ft | 507 kts | 97° |
| 2026-05-08 19:09 | 21.51330 | 58.65129 | 36839 ft | 507 kts | 97° |
| 2026-05-08 19:10 | 21.50628 | 58.72656 | 36839 ft | 507 kts | 97° |
| 2026-05-08 19:10 | 21.49922 | 58.80183 | 36832 ft | 507 kts | 97° |
| 2026-05-08 19:11 | 21.49213 | 58.87713 | 36833 ft | 507 kts | 97° |
| 2026-05-08 19:11 | 21.48622 | 58.93967 | 36836 ft | 506 kts | 97° |
| 2026-05-08 19:12 | 21.47908 | 59.01490 | 36829 ft | 506 kts | 97° |
| 2026-05-08 19:12 | 21.47190 | 59.09012 | 36831 ft | 506 kts | 97° |
| 2026-05-08 19:13 | 21.46470 | 59.16522 | 36812 ft | 506 kts | 97° |
| 2026-05-08 19:13 | 21.45747 | 59.24038 | 36812 ft | 506 kts | 97° |
| 2026-05-08 19:14 | 21.45020 | 59.31550 | 36825 ft | 506 kts | 97° |
| 2026-05-08 19:14 | 21.44288 | 59.39068 | 36819 ft | 507 kts | 97° |
| 2026-05-08 19:15 | 21.43553 | 59.46589 | 36806 ft | 507 kts | 98° |
| 2026-05-08 19:15 | 21.42814 | 59.54105 | 36818 ft | 507 kts | 98° |
| 2026-05-08 19:16 | 21.42073 | 59.61626 | 36816 ft | 507 kts | 98° |
| 2026-05-08 19:16 | 21.41326 | 59.69162 | 36817 ft | 508 kts | 98° |
| 2026-05-08 19:17 | 21.40576 | 59.76699 | 36807 ft | 508 kts | 98° |
| 2026-05-08 19:17 | 21.39822 | 59.84242 | 36817 ft | 508 kts | 97° |
| 2026-05-08 19:18 | 21.39065 | 59.91777 | 36815 ft | 508 kts | 98° |
| 2026-05-08 19:18 | 21.38309 | 59.99267 | 36814 ft | 508 kts | 98° |
| 2026-05-08 19:19 | 21.37543 | 60.06805 | 36817 ft | 508 kts | 98° |
| 2026-05-08 19:19 | 21.36776 | 60.14340 | 36815 ft | 508 kts | 98° |
| 2026-05-08 19:20 | 21.36005 | 60.21879 | 36816 ft | 508 kts | 97° |
| 2026-05-08 19:20 | 21.35232 | 60.29413 | 36818 ft | 508 kts | 98° |
| 2026-05-08 19:21 | 21.34454 | 60.36946 | 36817 ft | 508 kts | 98° |
| 2026-05-08 19:21 | 21.33673 | 60.44482 | 36820 ft | 508 kts | 98° |
| 2026-05-08 19:22 | 21.32890 | 60.52010 | 36817 ft | 508 kts | 98° |
| 2026-05-08 19:22 | 21.32102 | 60.59540 | 36817 ft | 507 kts | 98° |
| 2026-05-08 19:23 | 21.31311 | 60.67057 | 36823 ft | 507 kts | 98° |
| 2026-05-08 19:23 | 21.30519 | 60.74579 | 36820 ft | 507 kts | 98° |
| 2026-05-08 19:24 | 21.29724 | 60.82086 | 36821 ft | 507 kts | 98° |
| 2026-05-08 19:24 | 21.28931 | 60.89541 | 36821 ft | 506 kts | 98° |
| 2026-05-08 19:25 | 21.28131 | 60.97039 | 36823 ft | 506 kts | 99° |
| 2026-05-08 19:25 | 21.27325 | 61.04538 | 36823 ft | 506 kts | 98° |
| 2026-05-08 19:26 | 21.26519 | 61.12026 | 36827 ft | 505 kts | 98° |
| 2026-05-08 19:26 | 21.25709 | 61.19515 | 36822 ft | 505 kts | 98° |
| 2026-05-08 19:27 | 21.24896 | 61.26990 | 36827 ft | 505 kts | 98° |
| 2026-05-08 19:27 | 21.24080 | 61.34469 | 36825 ft | 505 kts | 99° |
| 2026-05-08 19:28 | 21.23262 | 61.41938 | 36830 ft | 504 kts | 98° |
| 2026-05-08 19:28 | 21.22442 | 61.49404 | 36830 ft | 504 kts | 98° |
| 2026-05-08 19:29 | 21.21617 | 61.56875 | 36830 ft | 505 kts | 98° |
| 2026-05-08 19:29 | 21.20322 | 61.64224 | 36833 ft | 501 kts | 111° |
| 2026-05-08 19:30 | 21.17526 | 61.71031 | 36831 ft | 499 kts | 118° |
| 2026-05-08 19:30 | 21.14338 | 61.77634 | 36835 ft | 498 kts | 119° |
| 2026-05-08 19:31 | 21.11090 | 61.84188 | 36836 ft | 498 kts | 120° |
| 2026-05-08 19:31 | 21.07855 | 61.90755 | 36834 ft | 498 kts | 119° |
| 2026-05-08 19:32 | 21.04636 | 61.97330 | 36838 ft | 499 kts | 120° |
| 2026-05-08 19:32 | 21.01421 | 62.03905 | 36838 ft | 499 kts | 120° |
| 2026-05-08 19:33 | 20.98202 | 62.10480 | 36840 ft | 499 kts | 119° |
| 2026-05-08 19:33 | 20.95001 | 62.17007 | 36841 ft | 498 kts | 120° |
| 2026-05-08 19:34 | 20.91783 | 62.23564 | 36846 ft | 497 kts | 120° |
| 2026-05-08 19:34 | 20.88564 | 62.30115 | 36845 ft | 498 kts | 120° |
| 2026-05-08 19:35 | 20.85337 | 62.36672 | 36845 ft | 498 kts | 119° |
| 2026-05-08 19:35 | 20.82108 | 62.43226 | 36846 ft | 498 kts | 118° |
| 2026-05-08 19:36 | 20.78878 | 62.49773 | 36845 ft | 498 kts | 120° |
| 2026-05-08 19:36 | 20.75643 | 62.56322 | 36846 ft | 499 kts | 119° |
| 2026-05-08 19:37 | 20.72404 | 62.62874 | 36852 ft | 499 kts | 119° |
| 2026-05-08 19:37 | 20.69165 | 62.69420 | 36852 ft | 498 kts | 118° |
| 2026-05-08 19:38 | 20.65928 | 62.75954 | 36852 ft | 498 kts | 118° |
| 2026-05-08 19:38 | 20.62689 | 62.82483 | 36854 ft | 498 kts | 119° |
| 2026-05-08 19:39 | 20.59443 | 62.89017 | 36857 ft | 499 kts | 118° |
| 2026-05-08 19:39 | 20.56186 | 62.95564 | 36859 ft | 500 kts | 119° |
| 2026-05-08 19:40 | 20.52925 | 63.02111 | 36857 ft | 499 kts | 119° |
| 2026-05-08 19:40 | 20.49667 | 63.08646 | 36855 ft | 499 kts | 119° |
| 2026-05-08 19:41 | 20.46430 | 63.15128 | 36858 ft | 498 kts | 118° |
| 2026-05-08 19:41 | 20.43165 | 63.21663 | 36860 ft | 500 kts | 118° |
| 2026-05-08 19:42 | 20.39895 | 63.28198 | 36858 ft | 500 kts | 119° |
| 2026-05-08 19:42 | 20.36618 | 63.34738 | 36859 ft | 500 kts | 119° |
| 2026-05-08 19:43 | 20.33342 | 63.41274 | 36860 ft | 500 kts | 119° |
| 2026-05-08 19:43 | 20.30061 | 63.47810 | 36860 ft | 500 kts | 118° |
| 2026-05-08 19:44 | 20.26753 | 63.54393 | 36860 ft | 501 kts | 118° |
| 2026-05-08 19:44 | 20.23489 | 63.60879 | 36859 ft | 500 kts | 119° |
| 2026-05-08 19:45 | 20.20199 | 63.67408 | 36864 ft | 500 kts | 119° |
| 2026-05-08 19:45 | 20.16908 | 63.73932 | 36864 ft | 500 kts | 119° |
| 2026-05-08 19:46 | 20.13612 | 63.80456 | 36863 ft | 500 kts | 119° |
| 2026-05-08 19:46 | 20.08659 | 63.90249 | 36864 ft | 501 kts | 118° |
| 2026-05-08 19:47 | 20.05358 | 63.96770 | 36865 ft | 501 kts | 119° |
| 2026-05-08 19:47 | 20.02049 | 64.03295 | 36864 ft | 501 kts | 119° |
| 2026-05-08 19:48 | 19.98738 | 64.09817 | 36864 ft | 501 kts | 118° |
| 2026-05-08 19:48 | 19.95427 | 64.16332 | 36868 ft | 501 kts | 119° |
| 2026-05-08 19:49 | 19.92110 | 64.22851 | 36868 ft | 501 kts | 118° |
| 2026-05-08 19:49 | 19.88794 | 64.29363 | 36868 ft | 501 kts | 119° |
| 2026-05-08 19:50 | 19.85496 | 64.35832 | 36869 ft | 501 kts | 119° |
| 2026-05-08 19:50 | 19.82175 | 64.42339 | 36868 ft | 501 kts | 118° |
| 2026-05-08 19:51 | 19.78856 | 64.48834 | 36870 ft | 500 kts | 118° |
| 2026-05-08 19:51 | 19.75534 | 64.55326 | 36872 ft | 500 kts | 118° |
| 2026-05-08 19:52 | 19.72211 | 64.61812 | 36856 ft | 500 kts | 118° |
| 2026-05-08 19:52 | 19.68883 | 64.68301 | 36871 ft | 500 kts | 118° |
| 2026-05-08 19:53 | 19.65554 | 64.74786 | 36858 ft | 500 kts | 118° |
| 2026-05-08 19:53 | 19.62224 | 64.81268 | 36873 ft | 500 kts | 119° |
| 2026-05-08 19:54 | 19.58892 | 64.87745 | 36867 ft | 500 kts | 119° |
| 2026-05-08 19:54 | 19.55556 | 64.94222 | 36851 ft | 500 kts | 119° |
| 2026-05-08 19:55 | 19.52222 | 65.00699 | 36872 ft | 501 kts | 118° |
| 2026-05-08 19:55 | 19.48942 | 65.07202 | 36873 ft | 500 kts | 118° |
| 2026-05-08 19:56 | 19.45681 | 65.13720 | 36857 ft | 500 kts | 118° |
| 2026-05-08 19:56 | 19.42419 | 65.20226 | 36858 ft | 500 kts | 118° |
| 2026-05-08 19:57 | 19.39147 | 65.26731 | 36858 ft | 500 kts | 118° |
| 2026-05-08 19:57 | 19.35870 | 65.33233 | 36877 ft | 500 kts | 118° |
| 2026-05-08 19:58 | 19.32591 | 65.39734 | 36863 ft | 500 kts | 118° |
| 2026-05-08 19:58 | 19.29307 | 65.46236 | 36860 ft | 501 kts | 118° |
| 2026-05-08 19:59 | 19.26047 | 65.52686 | 36880 ft | 501 kts | 118° |
| 2026-05-08 19:59 | 19.22761 | 65.59180 | 36880 ft | 500 kts | 118° |
| 2026-05-08 20:00 | 19.20006 | 65.64619 | 36869 ft | 501 kts | 118° |
| 2026-05-08 20:00 | 19.16716 | 65.71107 | 36869 ft | 500 kts | 118° |
| 2026-05-08 20:01 | 19.13424 | 65.77593 | 36871 ft | 501 kts | 118° |
| 2026-05-08 20:01 | 19.10129 | 65.84077 | 36868 ft | 500 kts | 118° |
| 2026-05-08 20:02 | 19.06830 | 65.90562 | 36886 ft | 501 kts | 118° |
| 2026-05-08 20:02 | 19.03526 | 65.97048 | 36886 ft | 501 kts | 118° |
| 2026-05-08 20:03 | 19.00221 | 66.03531 | 36876 ft | 501 kts | 118° |
| 2026-05-08 20:03 | 18.96937 | 66.09964 | 36882 ft | 501 kts | 118° |
| 2026-05-08 20:04 | 18.93627 | 66.16442 | 36871 ft | 501 kts | 118° |
| 2026-05-08 20:04 | 18.90315 | 66.22917 | 36872 ft | 501 kts | 118° |
| 2026-05-08 20:05 | 18.87003 | 66.29386 | 36871 ft | 501 kts | 118° |
| 2026-05-08 20:05 | 18.83686 | 66.35855 | 36877 ft | 501 kts | 118° |
| 2026-05-08 20:06 | 18.80364 | 66.42328 | 36870 ft | 502 kts | 118° |
| 2026-05-08 20:06 | 18.77041 | 66.48799 | 36887 ft | 501 kts | 118° |
| 2026-05-08 20:07 | 18.73717 | 66.55263 | 36884 ft | 502 kts | 118° |
| 2026-05-08 20:07 | 18.70388 | 66.61730 | 36869 ft | 501 kts | 118° |
| 2026-05-08 20:08 | 18.67055 | 66.68198 | 36889 ft | 502 kts | 118° |
| 2026-05-08 20:08 | 18.63724 | 66.74655 | 36872 ft | 501 kts | 118° |
| 2026-05-08 20:09 | 18.60387 | 66.81118 | 36873 ft | 502 kts | 118° |
| 2026-05-08 20:09 | 18.57047 | 66.87580 | 36869 ft | 502 kts | 118° |
| 2026-05-08 20:10 | 18.53700 | 66.94048 | 36870 ft | 502 kts | 118° |
| 2026-05-08 20:10 | 18.50350 | 67.00513 | 36868 ft | 503 kts | 118° |
| 2026-05-08 20:11 | 18.46994 | 67.06986 | 36872 ft | 503 kts | 118° |
| 2026-05-08 20:11 | 18.43636 | 67.13453 | 36865 ft | 503 kts | 119° |
| 2026-05-08 20:12 | 18.40299 | 67.19874 | 36864 ft | 503 kts | 118° |
| 2026-05-08 20:12 | 18.36935 | 67.26341 | 36864 ft | 503 kts | 119° |
| 2026-05-08 20:13 | 18.33571 | 67.32802 | 36858 ft | 505 kts | 119° |
| 2026-05-08 20:13 | 18.30194 | 67.39281 | 36858 ft | 504 kts | 119° |
| 2026-05-08 20:14 | 18.26816 | 67.45754 | 36861 ft | 505 kts | 119° |
| 2026-05-08 20:14 | 18.23437 | 67.52222 | 36864 ft | 505 kts | 119° |
| 2026-05-08 20:15 | 18.20049 | 67.58699 | 36864 ft | 505 kts | 119° |
| 2026-05-08 20:15 | 18.16663 | 67.65169 | 36874 ft | 505 kts | 119° |
| 2026-05-08 20:16 | 18.13272 | 67.71640 | 36856 ft | 505 kts | 119° |
| 2026-05-08 20:16 | 18.09878 | 67.78113 | 36849 ft | 506 kts | 119° |
| 2026-05-08 20:17 | 18.06497 | 67.84593 | 36854 ft | 506 kts | 118° |
| 2026-05-08 20:17 | 18.03186 | 67.91123 | 36847 ft | 506 kts | 118° |
| 2026-05-08 20:18 | 17.99897 | 67.97653 | 36848 ft | 506 kts | 118° |
| 2026-05-08 20:18 | 17.96596 | 68.04188 | 36850 ft | 506 kts | 118° |
| 2026-05-08 20:19 | 17.93293 | 68.10704 | 36847 ft | 506 kts | 118° |
| 2026-05-08 20:19 | 17.90003 | 68.17183 | 36845 ft | 506 kts | 118° |
| 2026-05-08 20:20 | 17.86689 | 68.23702 | 36851 ft | 507 kts | 118° |
| 2026-05-08 20:20 | 17.83372 | 68.30221 | 36862 ft | 506 kts | 118° |
| 2026-05-08 20:21 | 17.80029 | 68.36786 | 36840 ft | 507 kts | 118° |
| 2026-05-08 20:21 | 17.76729 | 68.43258 | 36838 ft | 507 kts | 118° |
| 2026-05-08 20:22 | 17.73400 | 68.49779 | 36842 ft | 507 kts | 118° |
| 2026-05-08 20:22 | 17.70070 | 68.56296 | 36838 ft | 508 kts | 118° |
| 2026-05-08 20:23 | 17.66734 | 68.62815 | 36840 ft | 507 kts | 118° |
| 2026-05-08 20:23 | 17.63396 | 68.69335 | 36846 ft | 508 kts | 118° |
| 2026-05-08 20:24 | 17.60057 | 68.75851 | 36841 ft | 507 kts | 118° |
| 2026-05-08 20:24 | 17.56711 | 68.82373 | 36841 ft | 508 kts | 118° |
| 2026-05-08 20:25 | 17.53369 | 68.88882 | 36840 ft | 508 kts | 118° |
| 2026-05-08 20:25 | 17.50016 | 68.95405 | 36836 ft | 508 kts | 119° |
| 2026-05-08 20:26 | 17.46665 | 69.01919 | 36839 ft | 508 kts | 119° |
| 2026-05-08 20:26 | 17.43308 | 69.08435 | 36836 ft | 508 kts | 118° |
| 2026-05-08 20:27 | 17.39949 | 69.14951 | 36836 ft | 508 kts | 118° |
| 2026-05-08 20:27 | 17.36589 | 69.21462 | 36839 ft | 509 kts | 119° |
| 2026-05-08 20:28 | 17.33223 | 69.27978 | 36833 ft | 509 kts | 119° |
| 2026-05-08 20:28 | 17.29854 | 69.34493 | 36838 ft | 509 kts | 118° |
| 2026-05-08 20:29 | 17.26506 | 69.40961 | 36831 ft | 509 kts | 118° |
| 2026-05-08 20:29 | 17.23133 | 69.47470 | 36835 ft | 509 kts | 119° |
| 2026-05-08 20:30 | 17.19757 | 69.53980 | 36833 ft | 509 kts | 119° |
| 2026-05-08 20:30 | 17.16390 | 69.60497 | 36839 ft | 509 kts | 118° |
| 2026-05-08 20:31 | 17.13033 | 69.67018 | 36833 ft | 509 kts | 118° |
| 2026-05-08 20:31 | 17.09673 | 69.73540 | 36834 ft | 509 kts | 118° |
| 2026-05-08 20:32 | 17.06312 | 69.80054 | 36836 ft | 509 kts | 118° |
| 2026-05-08 20:32 | 17.02947 | 69.86566 | 36838 ft | 509 kts | 118° |
| 2026-05-08 20:33 | 16.99582 | 69.93073 | 36832 ft | 509 kts | 118° |
| 2026-05-08 20:33 | 16.96213 | 69.99581 | 36834 ft | 509 kts | 118° |
| 2026-05-08 20:34 | 16.92843 | 70.06083 | 36829 ft | 509 kts | 118° |
| 2026-05-08 20:35 | 16.87784 | 70.15832 | 36840 ft | 509 kts | 119° |
| 2026-05-08 20:35 | 16.84408 | 70.22332 | 36831 ft | 509 kts | 119° |
| 2026-05-08 20:36 | 16.81031 | 70.28825 | 36828 ft | 509 kts | 119° |
| 2026-05-08 20:36 | 16.77652 | 70.35318 | 36834 ft | 509 kts | 119° |
| 2026-05-08 20:37 | 16.74272 | 70.41806 | 36825 ft | 509 kts | 119° |
| 2026-05-08 20:37 | 16.70890 | 70.48290 | 36826 ft | 509 kts | 119° |
| 2026-05-08 20:38 | 16.67505 | 70.54774 | 36828 ft | 509 kts | 119° |
| 2026-05-08 20:38 | 16.64116 | 70.61260 | 36827 ft | 509 kts | 119° |
| 2026-05-08 20:39 | 16.60751 | 70.67693 | 36827 ft | 509 kts | 119° |
| 2026-05-08 20:39 | 16.57359 | 70.74175 | 36829 ft | 509 kts | 119° |
| 2026-05-08 20:40 | 16.53968 | 70.80647 | 36823 ft | 509 kts | 119° |
| 2026-05-08 20:40 | 16.50586 | 70.87128 | 36822 ft | 509 kts | 119° |
| 2026-05-08 20:41 | 16.47223 | 70.93623 | 36820 ft | 510 kts | 118° |
| 2026-05-08 20:41 | 16.43859 | 71.00120 | 36820 ft | 509 kts | 118° |
| 2026-05-08 20:42 | 16.40492 | 71.06611 | 36823 ft | 509 kts | 118° |
| 2026-05-08 20:42 | 16.37121 | 71.13101 | 36822 ft | 510 kts | 118° |
| 2026-05-08 20:43 | 16.33748 | 71.19587 | 36816 ft | 509 kts | 119° |
| 2026-05-08 20:43 | 16.30374 | 71.26070 | 36819 ft | 510 kts | 118° |
| 2026-05-08 20:44 | 16.26997 | 71.32553 | 36815 ft | 509 kts | 118° |
| 2026-05-08 20:44 | 16.23617 | 71.39036 | 36815 ft | 510 kts | 119° |
| 2026-05-08 20:45 | 16.20239 | 71.45511 | 36810 ft | 509 kts | 119° |
| 2026-05-08 20:45 | 16.16858 | 71.51985 | 36815 ft | 508 kts | 119° |
| 2026-05-08 20:46 | 16.13481 | 71.58445 | 36815 ft | 509 kts | 119° |
| 2026-05-08 20:46 | 16.10095 | 71.64918 | 36810 ft | 509 kts | 118° |
| 2026-05-08 20:47 | 16.06767 | 71.71418 | 36812 ft | 509 kts | 118° |
| 2026-05-08 20:47 | 16.04028 | 71.76829 | 36808 ft | 509 kts | 118° |
| 2026-05-08 20:48 | 16.00729 | 71.83341 | 36814 ft | 509 kts | 118° |
| 2026-05-08 20:48 | 15.96886 | 71.90901 | 36807 ft | 509 kts | 118° |
| 2026-05-08 20:49 | 15.94108 | 71.96354 | 36808 ft | 509 kts | 118° |
| 2026-05-08 20:49 | 15.90260 | 72.03897 | 36804 ft | 508 kts | 118° |
| 2026-05-08 20:50 | 15.87493 | 72.09319 | 36801 ft | 506 kts | 118° |
| 2026-05-08 20:50 | 15.84217 | 72.15732 | 36805 ft | 506 kts | 118° |
| 2026-05-08 20:51 | 15.80916 | 72.22186 | 36801 ft | 506 kts | 118° |
| 2026-05-08 20:51 | 15.77615 | 72.28637 | 36801 ft | 506 kts | 118° |
| 2026-05-08 20:52 | 15.74311 | 72.35089 | 36801 ft | 506 kts | 118° |
| 2026-05-08 20:52 | 15.71005 | 72.41538 | 36801 ft | 506 kts | 118° |
| 2026-05-08 20:53 | 15.67697 | 72.47984 | 36798 ft | 506 kts | 118° |
| 2026-05-08 20:53 | 15.64389 | 72.54424 | 36793 ft | 506 kts | 118° |
| 2026-05-08 20:54 | 15.61080 | 72.60859 | 36794 ft | 505 kts | 118° |
| 2026-05-08 20:54 | 15.57772 | 72.67288 | 36794 ft | 505 kts | 118° |
| 2026-05-08 20:55 | 15.54463 | 72.73715 | 36795 ft | 505 kts | 118° |
| 2026-05-08 20:55 | 15.51155 | 72.80137 | 36791 ft | 505 kts | 118° |
| 2026-05-08 20:56 | 15.47843 | 72.86561 | 36784 ft | 505 kts | 118° |
| 2026-05-08 20:56 | 15.44531 | 72.92978 | 36787 ft | 505 kts | 118° |
| 2026-05-08 20:57 | 15.41212 | 72.99399 | 36794 ft | 505 kts | 118° |
| 2026-05-08 20:57 | 15.37893 | 73.05815 | 36790 ft | 505 kts | 118° |
| 2026-05-08 20:58 | 15.34595 | 73.12184 | 36791 ft | 505 kts | 118° |
| 2026-05-08 20:58 | 15.31275 | 73.18588 | 36788 ft | 504 kts | 119° |
| 2026-05-08 20:59 | 15.27961 | 73.24978 | 36790 ft | 503 kts | 119° |
| 2026-05-08 20:59 | 15.24644 | 73.31366 | 36791 ft | 503 kts | 119° |
| 2026-05-08 21:00 | 15.21329 | 73.37748 | 36795 ft | 504 kts | 119° |
| 2026-05-08 21:00 | 15.18006 | 73.44134 | 36797 ft | 503 kts | 120° |
| 2026-05-08 21:01 | 15.14686 | 73.50514 | 36791 ft | 504 kts | 119° |
| 2026-05-08 21:01 | 15.11365 | 73.56890 | 36786 ft | 503 kts | 119° |
| 2026-05-08 21:02 | 15.08041 | 73.63268 | 36787 ft | 504 kts | 118° |
| 2026-05-08 21:02 | 15.04716 | 73.69643 | 36785 ft | 503 kts | 119° |
| 2026-05-08 21:03 | 15.01389 | 73.76017 | 36782 ft | 504 kts | 119° |
| 2026-05-08 21:03 | 14.98054 | 73.82391 | 36784 ft | 504 kts | 120° |
| 2026-05-08 21:04 | 14.94712 | 73.88762 | 36784 ft | 504 kts | 120° |
| 2026-05-08 21:04 | 14.91373 | 73.95125 | 36786 ft | 504 kts | 120° |
| 2026-05-08 21:05 | 14.88033 | 74.01492 | 36790 ft | 503 kts | 119° |
| 2026-05-08 21:05 | 14.84702 | 74.07840 | 36798 ft | 501 kts | 119° |
| 2026-05-08 21:06 | 14.81400 | 74.14128 | 36800 ft | 501 kts | 119° |
| 2026-05-08 21:06 | 14.78076 | 74.20450 | 36791 ft | 501 kts | 119° |
| 2026-05-08 21:07 | 14.74746 | 74.26777 | 36807 ft | 501 kts | 119° |
| 2026-05-08 21:07 | 14.71418 | 74.33094 | 36806 ft | 501 kts | 119° |
| 2026-05-08 21:08 | 14.68088 | 74.39411 | 36821 ft | 500 kts | 120° |
| 2026-05-08 21:08 | 14.64766 | 74.45710 | 36816 ft | 499 kts | 120° |
| 2026-05-08 21:09 | 14.61447 | 74.51998 | 36832 ft | 499 kts | 120° |
| 2026-05-08 21:09 | 14.58126 | 74.58280 | 36831 ft | 499 kts | 120° |
| 2026-05-08 21:10 | 14.54802 | 74.64565 | 36852 ft | 499 kts | 120° |
| 2026-05-08 21:10 | 14.51477 | 74.70847 | 36852 ft | 499 kts | 120° |
| 2026-05-08 21:11 | 14.48180 | 74.77144 | 36849 ft | 499 kts | 118° |
| 2026-05-08 21:11 | 14.45134 | 74.83579 | 36862 ft | 499 kts | 117° |
| 2026-05-08 21:12 | 14.42119 | 74.90022 | 36864 ft | 498 kts | 117° |
| 2026-05-08 21:12 | 14.39107 | 74.96439 | 36865 ft | 497 kts | 117° |
| 2026-05-08 21:13 | 14.36094 | 75.02846 | 36858 ft | 496 kts | 117° |
| 2026-05-08 21:13 | 14.33075 | 75.09258 | 36873 ft | 498 kts | 117° |
| 2026-05-08 21:14 | 14.30039 | 75.15699 | 36869 ft | 500 kts | 117° |
| 2026-05-08 21:14 | 14.26998 | 75.22157 | 36881 ft | 501 kts | 117° |
| 2026-05-08 21:15 | 14.23953 | 75.28613 | 36883 ft | 501 kts | 117° |
| 2026-05-08 21:15 | 14.20925 | 75.35022 | 36881 ft | 501 kts | 117° |
| 2026-05-08 21:16 | 14.17877 | 75.41467 | 36881 ft | 501 kts | 117° |
| 2026-05-08 21:16 | 14.14822 | 75.47923 | 36881 ft | 501 kts | 117° |
| 2026-05-08 21:17 | 14.11771 | 75.54364 | 36887 ft | 499 kts | 117° |
| 2026-05-08 21:17 | 14.08727 | 75.60783 | 36890 ft | 498 kts | 117° |
| 2026-05-08 21:18 | 14.05694 | 75.67178 | 36892 ft | 497 kts | 117° |
| 2026-05-08 21:18 | 14.02656 | 75.73574 | 36889 ft | 497 kts | 117° |
| 2026-05-08 21:18 | 14.01137 | 75.76770 | 36760 ft | 495 kts | 117° |
| 2026-05-08 21:19 | 13.99624 | 75.79952 | 36478 ft | 496 kts | 117° |
| 2026-05-08 21:19 | 13.98099 | 75.83157 | 35827 ft | 500 kts | 117° |
| 2026-05-08 21:19 | 13.96562 | 75.86388 | 35097 ft | 503 kts | 117° |
| 2026-05-08 21:19 | 13.95018 | 75.89629 | 34373 ft | 506 kts | 117° |
| 2026-05-08 21:20 | 13.93465 | 75.92891 | 33595 ft | 509 kts | 116° |
| 2026-05-08 21:20 | 13.91899 | 75.96177 | 32775 ft | 512 kts | 116° |
| 2026-05-08 21:20 | 13.90327 | 75.99475 | 31999 ft | 515 kts | 116° |
| 2026-05-08 21:20 | 13.88747 | 76.02790 | 31231 ft | 517 kts | 116° |
| 2026-05-08 21:21 | 13.87160 | 76.06118 | 30715 ft | 519 kts | 116° |
| 2026-05-08 21:21 | 13.85567 | 76.09457 | 30162 ft | 521 kts | 116° |
| 2026-05-08 21:21 | 13.83967 | 76.12810 | 29508 ft | 523 kts | 116° |
| 2026-05-08 21:21 | 13.82360 | 76.16175 | 28659 ft | 524 kts | 116° |
| 2026-05-08 21:22 | 13.80782 | 76.19476 | 28610 ft | 505 kts | 116° |
| 2026-05-08 21:22 | 13.77741 | 76.25819 | 28338 ft | 496 kts | 116° |
| 2026-05-08 21:22 | 13.76224 | 76.28995 | 27705 ft | 494 kts | 116° |
| 2026-05-08 21:23 | 13.74712 | 76.32161 | 27038 ft | 491 kts | 115° |
| 2026-05-08 21:23 | 13.73212 | 76.35299 | 26391 ft | 487 kts | 115° |
| 2026-05-08 21:23 | 13.71723 | 76.38410 | 25809 ft | 483 kts | 115° |
| 2026-05-08 21:23 | 13.70249 | 76.41488 | 25189 ft | 477 kts | 115° |
| 2026-05-08 21:24 | 13.68795 | 76.44521 | 24314 ft | 468 kts | 115° |
| 2026-05-08 21:24 | 13.67368 | 76.47497 | 23247 ft | 461 kts | 115° |
| 2026-05-08 21:24 | 13.65952 | 76.50451 | 22646 ft | 462 kts | 115° |
| 2026-05-08 21:24 | 13.64521 | 76.53438 | 22152 ft | 468 kts | 115° |
| 2026-05-08 21:25 | 13.63088 | 76.56423 | 21736 ft | 462 kts | 115° |
| 2026-05-08 21:25 | 13.61675 | 76.59366 | 21134 ft | 457 kts | 115° |
| 2026-05-08 21:25 | 13.60274 | 76.62282 | 20487 ft | 453 kts | 115° |
| 2026-05-08 21:25 | 13.58884 | 76.65176 | 19863 ft | 449 kts | 115° |
| 2026-05-08 21:26 | 13.57508 | 76.68039 | 19258 ft | 445 kts | 115° |
| 2026-05-08 21:26 | 13.56144 | 76.70876 | 18662 ft | 440 kts | 115° |
| 2026-05-08 21:26 | 13.54794 | 76.73682 | 18056 ft | 436 kts | 115° |
| 2026-05-08 21:26 | 13.53456 | 76.76463 | 17611 ft | 430 kts | 115° |
| 2026-05-08 21:27 | 13.52133 | 76.79212 | 17249 ft | 429 kts | 115° |
| 2026-05-08 21:27 | 13.50816 | 76.81946 | 16776 ft | 425 kts | 115° |
| 2026-05-08 21:27 | 13.49515 | 76.84647 | 16215 ft | 419 kts | 115° |
| 2026-05-08 21:27 | 13.48231 | 76.87313 | 15658 ft | 413 kts | 115° |
| 2026-05-08 21:28 | 13.46977 | 76.89914 | 15171 ft | 411 kts | 115° |
| 2026-05-08 21:28 | 13.45700 | 76.92563 | 14622 ft | 406 kts | 115° |
| 2026-05-08 21:28 | 13.44471 | 76.95110 | 14027 ft | 402 kts | 114° |
| 2026-05-08 21:28 | 13.43221 | 76.97700 | 13396 ft | 397 kts | 114° |
| 2026-05-08 21:29 | 13.42001 | 77.00229 | 12886 ft | 394 kts | 114° |
| 2026-05-08 21:29 | 13.40804 | 77.02711 | 12357 ft | 391 kts | 114° |
| 2026-05-08 21:29 | 13.39584 | 77.05238 | 11879 ft | 388 kts | 114° |
| 2026-05-08 21:29 | 13.38409 | 77.07671 | 11528 ft | 380 kts | 114° |
| 2026-05-08 21:30 | 13.37259 | 77.10048 | 11314 ft | 364 kts | 114° |
| 2026-05-08 21:30 | 13.36146 | 77.12350 | 10779 ft | 356 kts | 115° |
| 2026-05-08 21:30 | 13.35072 | 77.14571 | 10416 ft | 334 kts | 115° |
| 2026-05-08 21:30 | 13.34084 | 77.16608 | 10326 ft | 305 kts | 114° |
| 2026-05-08 21:31 | 13.33175 | 77.18485 | 10197 ft | 283 kts | 114° |
| 2026-05-08 21:31 | 13.32303 | 77.20292 | 10061 ft | 287 kts | 114° |
| 2026-05-08 21:31 | 13.31409 | 77.22148 | 9924 ft | 291 kts | 114° |
| 2026-05-08 21:31 | 13.30508 | 77.24014 | 9555 ft | 292 kts | 114° |
| 2026-05-08 21:32 | 13.29608 | 77.25877 | 9176 ft | 290 kts | 114° |
| 2026-05-08 21:32 | 13.28717 | 77.27721 | 8830 ft | 287 kts | 114° |
| 2026-05-08 21:32 | 13.27835 | 77.29545 | 8493 ft | 284 kts | 114° |
| 2026-05-08 21:32 | 13.26959 | 77.31356 | 8157 ft | 282 kts | 114° |
| 2026-05-08 21:33 | 13.26091 | 77.33148 | 7818 ft | 280 kts | 114° |
| 2026-05-08 21:33 | 13.25224 | 77.34938 | 7480 ft | 279 kts | 114° |
| 2026-05-08 21:33 | 13.24363 | 77.36714 | 7149 ft | 277 kts | 114° |
| 2026-05-08 21:33 | 13.23505 | 77.38484 | 6819 ft | 276 kts | 114° |
| 2026-05-08 21:34 | 13.22653 | 77.40242 | 6482 ft | 274 kts | 114° |
| 2026-05-08 21:34 | 13.21805 | 77.41991 | 6149 ft | 273 kts | 114° |
| 2026-05-08 21:34 | 13.21101 | 77.43772 | 5978 ft | 265 kts | 102° |
| 2026-05-08 21:34 | 13.20857 | 77.45583 | 5965 ft | 248 kts | 91° |
| 2026-05-08 21:35 | 13.20858 | 77.47298 | 5967 ft | 233 kts | 88° |
| 2026-05-08 21:35 | 13.20864 | 77.48927 | 5970 ft | 224 kts | 89° |
| 2026-05-08 21:35 | 13.20866 | 77.50474 | 5981 ft | 209 kts | 89° |
| 2026-05-08 21:35 | 13.20863 | 77.51911 | 5977 ft | 194 kts | 89° |
| 2026-05-08 21:36 | 13.20853 | 77.53251 | 5896 ft | 184 kts | 89° |
| 2026-05-08 21:36 | 13.20835 | 77.54561 | 5656 ft | 183 kts | 89° |
| 2026-05-08 21:36 | 13.20823 | 77.55862 | 5411 ft | 179 kts | 89° |
| 2026-05-08 21:36 | 13.20813 | 77.57109 | 5178 ft | 170 kts | 89° |
| 2026-05-08 21:37 | 13.20804 | 77.58281 | 4964 ft | 165 kts | 90° |
| 2026-05-08 21:37 | 13.20797 | 77.59064 | 4818 ft | 160 kts | 90° |
| 2026-05-08 21:37 | 13.20788 | 77.60168 | 4619 ft | 151 kts | 91° |
| 2026-05-08 21:37 | 13.20776 | 77.61558 | 4375 ft | 142 kts | 91° |
| 2026-05-08 21:38 | 13.20767 | 77.62554 | 4193 ft | 142 kts | 90° |
| 2026-05-08 21:38 | 13.20759 | 77.63566 | 3998 ft | 142 kts | 91° |
| 2026-05-08 21:38 | 13.20753 | 77.64251 | 3886 ft | 142 kts | 91° |
| 2026-05-08 21:38 | 13.20744 | 77.65264 | 3697 ft | 142 kts | 91° |
| 2026-05-08 21:39 | 13.20736 | 77.66276 | 3490 ft | 142 kts | 91° |
| 2026-05-08 21:39 | 13.20734 | 77.67284 | 3302 ft | 140 kts | 89° |
| 2026-05-08 21:39 | 13.20723 | 77.68286 | 3132 ft | 140 kts | 90° |
| 2026-05-08 21:39 | 13.20714 | 77.69279 | 3017 ft | 133 kts | 91° |
| 2026-05-08 21:40 | 13.20708 | 77.70061 | 3015 ft | 92 kts | 90° |
| 2026-05-08 21:40 | 13.20704 | 77.70660 | 3015 ft | 75 kts | 90° |
| 2026-05-08 21:40 | 13.20612 | 77.71039 | 3014 ft | 37 kts | 118° |
| 2026-05-08 21:41 | 13.20523 | 77.71516 | 3015 ft | 33 kts | 90° |
| 2026-05-08 21:41 | 13.20520 | 77.71748 | 3015 ft | 32 kts | 89° |
| 2026-05-08 21:41 | 13.20519 | 77.71972 | 3015 ft | 31 kts | 90° |
| 2026-05-08 21:41 | 13.20453 | 77.72113 | 3015 ft | 20 kts | 176° |
| 2026-05-08 21:42 | 13.20314 | 77.72112 | 3015 ft | 20 kts | 180° |
| 2026-05-08 21:42 | 13.20180 | 77.72111 | 3015 ft | 13 kts | 181° |
| 2026-05-08 21:42 | 13.20117 | 77.72110 | 3015 ft | 7 kts | 180° |
| 2026-05-08 21:42 | 13.20062 | 77.72111 | 3015 ft | 8 kts | 179° |
| 2026-05-08 21:43 | 13.20001 | 77.72112 | 3015 ft | 9 kts | 178° |
| 2026-05-08 21:43 | 13.19952 | 77.72106 | 3015 ft | 4 kts | 218° |
| 2026-05-08 21:43 | 13.19949 | 77.72083 | 3015 ft | 4 kts | 271° |
| 2026-05-08 21:43 | 13.19950 | 77.72046 | 3015 ft | 6 kts | 270° |
| 2026-05-08 21:44 | 13.19950 | 77.72020 | 3015 ft | 2 kts | 270° |
| 2026-05-08 21:44 | 13.19950 | 77.72014 | 3015 ft | 0 kts | 270° |